Time;durP1;ratioP1;P1;durP2;ratioP2;P2;SDS_P1;SDS_P2;PMS_P1;PMS_P2;Temp;Humidity;BMP_temperature;BMP_pressure;BME280_temperature;BME280_humidity;BME280_pressure;Samples;Min_cycle;Max_cycle;Signal;HPM_P1;HPM_P2
2022/06/01 00:01:32;;;;;;;1.35;1.25;;;17.90;55.70;;;;;;5134528;27;20047;-67
2022/06/01 00:03:58;;;;;;;1.85;1.70;;;17.90;55.70;;;;;;5135118;27;20049;-68
2022/06/01 00:06:23;;;;;;;2.38;1.67;;;17.90;55.80;;;;;;5116344;27;20043;-65
2022/06/01 00:08:49;;;;;;;1.80;1.30;;;17.90;55.80;;;;;;5133797;27;20046;-66
2022/06/01 00:11:16;;;;;;;1.60;1.50;;;17.90;55.80;;;;;;5133251;27;20118;-67
2022/06/01 00:13:42;;;;;;;1.40;1.05;;;17.80;55.80;;;;;;5116334;27;20120;-67
2022/06/01 00:16:08;;;;;;;2.08;1.52;;;17.80;55.80;;;;;;5116090;27;20032;-65
2022/06/01 00:18:35;;;;;;;1.70;1.58;;;17.80;55.80;;;;;;5133607;27;20042;-65
2022/06/01 00:21:03;;;;;;;1.63;1.42;;;17.80;55.90;;;;;;5116207;27;20039;-65
2022/06/01 00:23:29;;;;;;;2.90;1.52;;;17.80;55.90;;;;;;5134567;27;20043;-68
2022/06/01 00:25:55;;;;;;;1.83;1.50;;;17.80;55.90;;;;;;5133379;27;20111;-66
2022/06/01 00:28:21;;;;;;;1.23;0.93;;;17.80;55.90;;;;;;5134269;27;20482;-66
2022/06/01 00:30:46;;;;;;;2.20;1.23;;;17.80;55.90;;;;;;5133063;27;20513;-65
2022/06/01 00:33:12;;;;;;;2.17;1.60;;;17.80;56.00;;;;;;5134353;27;20054;-67
2022/06/01 00:35:38;;;;;;;2.40;1.73;;;17.80;56.00;;;;;;5116081;27;20501;-66
2022/06/01 00:38:04;;;;;;;1.55;1.27;;;17.80;56.00;;;;;;5115684;27;20525;-65
2022/06/01 00:40:30;;;;;;;4.03;1.42;;;17.70;56.00;;;;;;5115635;27;20510;-65
2022/06/01 00:43:01;;;;;;;1.98;1.10;;;17.70;56.00;;;;;;5119348;27;20490;-65
2022/06/01 00:45:30;;;;;;;1.52;1.33;;;17.70;56.00;;;;;;5154691;27;20046;-65
2022/06/01 00:47:56;;;;;;;1.30;1.20;;;17.70;56.00;;;;;;5136414;27;20047;-65
2022/06/01 00:50:29;;;;;;;1.30;1.20;;;17.70;56.10;;;;;;5136130;27;20069;-66
2022/06/01 00:53:01;;;;;;;1.58;1.25;;;17.70;56.10;;;;;;5135995;27;20042;-65
2022/06/01 00:55:32;;;;;;;1.77;1.35;;;17.70;56.10;;;;;;5135937;27;20050;-67
2022/06/01 00:58:04;;;;;;;1.70;1.27;;;17.70;56.20;;;;;;5136214;27;20046;-67
2022/06/01 01:00:32;;;;;;;2.10;1.15;;;17.70;56.20;;;;;;5154420;27;20041;-67
2022/06/01 01:03:02;;;;;;;1.58;1.30;;;17.70;56.20;;;;;;5135413;27;20061;-65
2022/06/01 01:05:29;;;;;;;1.77;1.30;;;17.70;56.20;;;;;;5154434;27;20089;-65
2022/06/01 01:07:57;;;;;;;1.67;1.20;;;17.70;56.20;;;;;;5154134;27;20035;-67
2022/06/01 01:10:23;;;;;;;1.60;1.50;;;17.70;56.20;;;;;;5154614;27;20035;-66
2022/06/01 01:12:57;;;;;;;1.67;1.58;;;17.70;56.20;;;;;;5154165;27;20469;-67
2022/06/01 01:15:28;;;;;;;1.48;1.30;;;17.70;56.30;;;;;;5135647;27;20039;-67
2022/06/01 01:17:54;;;;;;;2.00;1.60;;;17.60;56.30;;;;;;5135803;27;20061;-66
2022/06/01 01:20:20;;;;;;;1.70;1.30;;;17.70;56.30;;;;;;5135522;27;20046;-67
2022/06/01 01:25:32;;;;;;;1.67;1.48;;;17.70;56.30;;;;;;5152728;27;1169468;-67
2022/06/01 01:28:00;;;;;;;1.48;1.38;;;17.60;56.40;;;;;;5135913;27;20542;-66
2022/06/01 01:33:13;;;;;;;1.77;1.30;;;17.60;56.40;;;;;;5048677;27;4067762;-67
2022/06/01 01:35:41;;;;;;;3.30;1.40;;;17.60;56.40;;;;;;5153140;27;20051;-66
2022/06/01 01:38:23;;;;;;;1.35;1.23;;;17.60;56.50;;;;;;5153078;27;20051;-67
2022/06/01 01:41:18;;;;;;;2.50;1.42;;;17.60;56.50;;;;;;5153009;27;20042;-66
2022/06/01 01:46:47;;;;;;;1.38;1.17;;;17.60;56.50;;;;;;5152708;27;1169916;-65
2022/06/01 01:49:14;;;;;;;1.25;1.15;;;17.60;56.50;;;;;;5153034;27;20474;-66
2022/06/01 01:51:40;;;;;;;1.42;1.25;;;17.60;56.50;;;;;;5153403;27;20034;-67
2022/06/01 02:00:07;;;;;;;1.30;1.20;;;17.60;56.60;;;;;;5130230;27;20771;-65
2022/06/01 02:08:01;;;;;;;2.13;1.35;;;17.60;56.60;;;;;;5130203;27;20386;-67
2022/06/01 02:13:17;;;;;;;1.38;1.23;;;17.60;56.60;;;;;;5128652;27;20058;-66
2022/06/01 02:15:46;;;;;;;2.20;1.20;;;17.50;56.50;;;;;;5128871;27;20031;-65
2022/06/01 02:18:17;;;;;;;1.58;1.05;;;17.50;56.60;;;;;;5130196;27;20066;-65
2022/06/01 02:20:51;;;;;;;1.38;1.20;;;17.50;56.60;;;;;;5128944;28;20119;-65
2022/06/01 02:23:17;;;;;;;1.45;1.23;;;17.50;56.60;;;;;;5128694;28;20118;-66
2022/06/01 02:25:45;;;;;;;1.52;1.35;;;17.50;56.60;;;;;;5129897;27;20076;-67
2022/06/01 02:28:11;;;;;;;1.70;1.20;;;17.50;56.60;;;;;;5128664;28;20047;-67
2022/06/01 02:30:42;;;;;;;1.20;1.10;;;17.50;56.60;;;;;;5128765;27;20036;-65
2022/06/01 02:33:12;;;;;;;1.55;1.38;;;17.50;56.60;;;;;;5128495;28;20043;-68
2022/06/01 02:35:41;;;;;;;1.23;1.02;;;17.50;56.60;;;;;;5128740;28;20127;-65
2022/06/01 02:38:12;;;;;;;1.83;1.60;;;17.50;56.60;;;;;;5128512;28;20076;-65
2022/06/01 02:40:39;;;;;;;1.42;1.23;;;17.50;56.70;;;;;;5128251;28;20269;-65
2022/06/01 02:43:05;;;;;;;2.25;1.70;;;17.50;56.60;;;;;;5128360;28;20040;-67
2022/06/01 02:45:31;;;;;;;2.85;1.35;;;17.40;56.60;;;;;;5129399;27;20047;-67
2022/06/01 02:47:59;;;;;;;1.67;1.58;;;17.50;56.70;;;;;;5129724;28;20039;-67
2022/06/01 02:50:27;;;;;;;1.70;1.60;;;17.50;56.60;;;;;;5129722;27;20042;-66
2022/06/01 02:52:53;;;;;;;2.33;1.27;;;17.40;56.60;;;;;;5128364;28;20073;-67
2022/06/01 02:55:22;;;;;;;3.65;2.00;;;17.40;56.60;;;;;;5128217;28;20481;-65
2022/06/01 02:57:49;;;;;;;2.55;1.63;;;17.40;56.70;;;;;;5128295;28;20040;-65
2022/06/01 03:00:20;;;;;;;1.70;1.50;;;17.40;56.60;;;;;;5129350;27;20043;-65
2022/06/01 03:02:51;;;;;;;1.55;1.10;;;17.50;56.80;;;;;;5128192;28;20050;-62
2022/06/01 03:05:22;;;;;;;2.83;1.77;;;17.40;57.40;;;;;;5128034;28;20039;-65
2022/06/01 03:07:48;;;;;;;1.88;1.23;;;17.40;56.70;;;;;;5128964;27;20139;-66
2022/06/01 03:10:14;;;;;;;2.45;1.77;;;17.40;56.80;;;;;;5127827;28;20503;-67
2022/06/01 03:12:40;;;;;;;1.50;1.10;;;17.40;56.80;;;;;;5128980;28;20069;-66
2022/06/01 03:15:08;;;;;;;2.30;1.30;;;17.40;56.80;;;;;;5129245;27;20105;-65
2022/06/01 03:17:34;;;;;;;1.50;1.35;;;17.40;56.80;;;;;;5123273;28;20043;-65
2022/06/01 03:20:00;;;;;;;1.83;1.60;;;17.40;56.90;;;;;;5114284;28;20040;-66
2022/06/01 03:22:26;;;;;;;2.05;1.50;;;17.40;56.90;;;;;;5113835;28;20086;-66
2022/06/01 03:24:51;;;;;;;1.40;1.30;;;17.40;56.80;;;;;;5115221;28;20044;-66
2022/06/01 03:27:18;;;;;;;2.65;1.50;;;17.40;56.90;;;;;;5115097;28;20043;-67
2022/06/01 03:29:45;;;;;;;1.38;1.27;;;17.40;56.90;;;;;;5114120;28;20054;-66
2022/06/01 03:32:11;;;;;;;1.50;1.40;;;17.40;56.90;;;;;;5114015;28;20108;-65
2022/06/01 03:34:38;;;;;;;1.50;1.20;;;17.40;56.90;;;;;;5113690;28;20054;-65
2022/06/01 03:37:04;;;;;;;1.88;1.67;;;17.40;56.90;;;;;;5113857;28;20517;-65
2022/06/01 03:39:29;;;;;;;2.22;1.70;;;17.40;56.90;;;;;;5113562;28;20040;-66
2022/06/01 03:41:55;;;;;;;1.67;1.30;;;17.30;56.90;;;;;;5113830;28;20042;-66
2022/06/01 03:47:09;;;;;;;2.17;1.70;;;17.30;56.90;;;;;;5113199;28;20048;-63
2022/06/01 03:49:35;;;;;;;1.75;1.65;;;17.30;57.00;;;;;;5113236;28;20055;-67
2022/06/01 03:52:02;;;;;;;1.45;1.02;;;17.30;57.00;;;;;;5113684;28;20051;-65
2022/06/01 03:54:28;;;;;;;1.52;1.40;;;17.30;57.00;;;;;;5114761;28;20656;-65
2022/06/01 03:56:57;;;;;;;1.52;1.40;;;17.30;57.00;;;;;;5114653;28;20114;-67
2022/06/01 03:59:22;;;;;;;1.25;1.13;;;17.30;57.10;;;;;;5113415;28;20048;-65
2022/06/01 04:01:48;;;;;;;2.08;1.40;;;17.30;57.10;;;;;;5113202;28;20130;-66
2022/06/01 04:04:14;;;;;;;2.47;1.70;;;17.30;57.10;;;;;;5114335;28;20071;-67
2022/06/01 04:06:40;;;;;;;1.63;1.33;;;17.30;57.10;;;;;;5114177;28;20577;-65
2022/06/01 04:09:05;;;;;;;1.88;1.45;;;17.30;57.20;;;;;;5112870;28;20062;-65
2022/06/01 04:11:31;;;;;;;2.00;1.50;;;17.30;57.20;;;;;;5113232;28;20035;-65
2022/06/01 04:13:57;;;;;;;1.65;1.30;;;17.20;57.10;;;;;;5114145;28;20388;-67
2022/06/01 04:16:23;;;;;;;2.20;2.00;;;17.30;57.20;;;;;;5114191;28;20065;-67
2022/06/01 04:18:49;;;;;;;2.33;1.60;;;17.30;57.20;;;;;;5112966;28;20487;-66
2022/06/01 04:21:21;;;;;;;2.40;1.77;;;17.30;57.30;;;;;;5113919;28;20048;-65
2022/06/01 04:23:48;;;;;;;2.22;1.55;;;17.30;57.30;;;;;;5113034;28;20046;-65
2022/06/01 04:26:16;;;;;;;2.08;1.52;;;17.30;57.30;;;;;;5112501;28;20484;-66
2022/06/01 04:28:42;;;;;;;1.75;1.65;;;17.20;57.90;;;;;;5112358;28;20161;-65
2022/06/01 04:31:08;;;;;;;2.85;1.42;;;17.20;57.20;;;;;;5112160;28;20050;-67
2022/06/01 04:33:34;;;;;;;2.05;1.58;;;17.20;57.20;;;;;;5112427;28;20047;-66
2022/06/01 04:36:02;;;;;;;1.80;1.60;;;17.30;57.30;;;;;;5112788;28;20058;-65
2022/06/01 04:38:28;;;;;;;1.50;1.25;;;17.30;58.00;;;;;;5112716;28;20052;-66
2022/06/01 04:40:54;;;;;;;1.45;1.30;;;17.20;57.20;;;;;;5113607;28;20042;-66
2022/06/01 04:43:22;;;;;;;2.30;1.40;;;17.30;57.30;;;;;;5112554;28;20158;-67
2022/06/01 04:45:52;;;;;;;2.00;1.80;;;17.30;57.30;;;;;;5112076;28;20536;-66
2022/06/01 04:48:18;;;;;;;2.33;2.13;;;17.30;57.30;;;;;;5113535;28;20044;-67
2022/06/01 04:50:43;;;;;;;2.08;1.95;;;17.30;57.20;;;;;;5112414;28;20048;-66
2022/06/01 04:53:11;;;;;;;2.30;1.85;;;17.30;57.20;;;;;;5113465;28;20039;-67
2022/06/01 04:55:37;;;;;;;3.15;2.25;;;17.30;57.20;;;;;;5112063;28;20036;-66
2022/06/01 04:58:03;;;;;;;2.20;2.00;;;17.30;57.20;;;;;;5112170;28;20092;-65
2022/06/01 05:00:28;;;;;;;2.28;2.08;;;17.30;57.10;;;;;;5111950;28;20039;-67
2022/06/01 05:02:54;;;;;;;2.22;2.03;;;17.30;57.10;;;;;;5112272;28;20036;-65
2022/06/01 05:05:20;;;;;;;2.20;2.08;;;17.30;57.10;;;;;;5111756;28;20387;-67
2022/06/01 05:07:45;;;;;;;2.38;2.17;;;17.30;57.10;;;;;;5111598;28;20180;-67
2022/06/01 05:10:11;;;;;;;2.92;1.83;;;17.30;57.10;;;;;;5111860;28;20390;-67
2022/06/01 05:12:37;;;;;;;3.13;2.80;;;17.30;57.20;;;;;;5113171;28;20085;-69
2022/06/01 05:15:04;;;;;;;1.63;1.52;;;17.30;57.10;;;;;;5111709;28;20516;-68
2022/06/01 05:17:31;;;;;;;1.75;1.65;;;17.30;57.10;;;;;;5111716;28;20047;-68
2022/06/01 05:19:58;;;;;;;2.25;2.05;;;17.30;57.10;;;;;;5111579;28;20043;-67
2022/06/01 05:22:27;;;;;;;2.50;1.90;;;17.30;57.10;;;;;;5111814;28;20536;-67
2022/06/01 05:24:52;;;;;;;2.78;2.42;;;17.30;57.20;;;;;;5111176;28;20074;-69
2022/06/01 05:27:18;;;;;;;3.78;1.77;;;17.30;57.20;;;;;;5110475;28;20094;-70
2022/06/01 05:29:46;;;;;;;1.95;1.75;;;17.30;57.40;;;;;;5111222;28;20032;-69
2022/06/01 05:32:13;;;;;;;2.30;1.88;;;17.30;57.70;;;;;;5109170;28;20047;-70
2022/06/01 05:34:38;;;;;;;2.25;2.05;;;17.30;57.60;;;;;;5111035;28;20081;-69
2022/06/01 05:37:04;;;;;;;2.33;2.13;;;17.30;57.50;;;;;;5109987;28;20431;-68
2022/06/01 05:39:30;;;;;;;2.70;2.47;;;17.40;57.70;;;;;;5109532;28;20502;-68
2022/06/01 05:41:58;;;;;;;2.00;1.60;;;17.40;57.70;;;;;;5109508;28;20079;-69
2022/06/01 05:44:24;;;;;;;1.83;1.45;;;17.40;57.70;;;;;;5109574;28;20046;-70
2022/06/01 05:46:55;;;;;;;2.13;1.88;;;17.40;57.70;;;;;;5108581;28;20039;-68
2022/06/01 05:49:21;;;;;;;1.50;1.08;;;17.50;57.80;;;;;;5106837;28;20039;-70
2022/06/01 05:51:49;;;;;;;1.52;1.40;;;17.50;57.70;;;;;;5106531;28;20051;-71
2022/06/01 05:54:15;;;;;;;2.00;1.52;;;17.50;57.90;;;;;;5108439;28;20048;-72
2022/06/01 05:56:41;;;;;;;4.90;1.17;;;17.60;58.10;;;;;;5108490;28;20054;-72
2022/06/01 05:59:06;;;;;;;3.58;1.48;;;17.60;58.40;;;;;;5106600;28;20046;-73
2022/06/01 06:01:32;;;;;;;8.13;1.63;;;17.60;58.70;;;;;;5104445;28;20047;-71
2022/06/01 06:03:57;;;;;;;2.10;1.55;;;17.60;58.90;;;;;;5105395;28;20047;-72
2022/06/01 06:06:24;;;;;;;2.67;2.47;;;17.70;59.10;;;;;;5089184;28;20059;-75
2022/06/01 06:08:55;;;;;;;2.67;1.70;;;17.70;59.10;;;;;;5074237;28;22343;-71
2022/06/01 06:11:23;;;;;;;2.85;2.10;;;17.70;58.90;;;;;;5075750;28;20032;-76
2022/06/01 06:13:52;;;;;;;3.17;1.92;;;17.70;58.70;;;;;;5073526;28;20040;-70
2022/06/01 06:16:17;;;;;;;2.15;1.75;;;17.80;58.60;;;;;;5072579;28;20713;-71
2022/06/01 06:18:44;;;;;;;2.67;1.60;;;17.80;58.40;;;;;;5081397;28;20048;-71
2022/06/01 06:21:10;;;;;;;1.48;1.20;;;17.80;58.30;;;;;;5077603;28;20609;-72
2022/06/01 06:23:36;;;;;;;1.70;1.50;;;17.80;58.10;;;;;;5072027;28;20130;-71
2022/06/01 06:26:01;;;;;;;4.20;1.48;;;17.90;58.20;;;;;;5073188;28;20651;-70
2022/06/01 06:28:27;;;;;;;2.30;1.52;;;17.90;58.10;;;;;;5077071;28;20028;-71
2022/06/01 06:30:53;;;;;;;2.75;1.85;;;17.90;58.00;;;;;;5076345;28;20089;-65
2022/06/01 06:33:19;;;;;;;3.53;2.03;;;17.90;57.90;;;;;;5077606;28;20035;-70
2022/06/01 06:35:45;;;;;;;2.25;1.95;;;17.90;57.90;;;;;;5092339;28;20131;-70
2022/06/01 06:38:14;;;;;;;3.88;3.20;;;18.00;57.90;;;;;;5092602;28;20052;-71
2022/06/01 06:40:43;;;;;;;6.18;2.90;;;17.90;57.90;;;;;;5077574;28;20051;-71
2022/06/01 06:43:08;;;;;;;5.35;3.47;;;17.90;58.00;;;;;;5079824;28;20675;-73
2022/06/01 06:45:34;;;;;;;7.20;4.05;;;18.00;58.30;;;;;;5090733;28;20036;-65
2022/06/01 06:47:59;;;;;;;5.88;4.20;;;18.00;58.60;;;;;;5095328;28;20031;-72
2022/06/01 06:50:27;;;;;;;5.00;4.50;;;18.00;58.90;;;;;;5080036;28;21001;-72
2022/06/01 06:52:53;;;;;;;8.82;5.72;;;18.10;59.00;;;;;;5080763;27;20125;-72
2022/06/01 06:55:19;;;;;;;5.95;4.55;;;18.10;59.20;;;;;;5085806;28;20709;-69
2022/06/01 06:57:44;;;;;;;4.85;4.45;;;18.10;59.40;;;;;;5083929;27;20067;-74
2022/06/01 07:00:11;;;;;;;4.88;4.07;;;18.10;59.40;;;;;;5094348;27;20588;-71
2022/06/01 07:02:37;;;;;;;5.15;4.47;;;18.20;59.50;;;;;;5083847;27;20043;-71
2022/06/01 07:05:04;;;;;;;6.32;4.28;;;18.20;59.50;;;;;;5079030;28;20039;-71
2022/06/01 07:07:30;;;;;;;4.30;3.95;;;18.20;59.50;;;;;;5083442;27;20143;-72
2022/06/01 07:09:56;;;;;;;4.30;3.97;;;18.20;59.50;;;;;;5081842;28;20040;-71
2022/06/01 07:12:22;;;;;;;4.47;3.72;;;18.30;59.70;;;;;;5075489;27;20683;-74
2022/06/01 07:14:47;;;;;;;3.60;3.28;;;18.30;59.80;;;;;;5099613;27;20032;-73
2022/06/01 07:17:13;;;;;;;3.85;3.55;;;18.40;59.70;;;;;;5081072;28;20036;-74
2022/06/01 07:19:38;;;;;;;4.20;3.00;;;18.40;59.60;;;;;;5098020;27;20054;-74
2022/06/01 07:22:04;;;;;;;4.72;3.40;;;18.50;59.70;;;;;;5082065;28;20115;-74
2022/06/01 07:24:30;;;;;;;3.60;3.30;;;18.50;59.80;;;;;;5071532;28;20052;-73
2022/06/01 07:26:56;;;;;;;5.10;2.95;;;18.50;59.70;;;;;;5089252;27;20491;-75
2022/06/01 07:29:22;;;;;;;3.13;2.83;;;18.50;59.70;;;;;;5087321;28;20040;-76
2022/06/01 07:31:50;;;;;;;2.33;2.13;;;18.50;59.70;;;;;;5084112;27;20039;-74
2022/06/01 07:34:16;;;;;;;3.28;1.25;;;18.60;59.50;;;;;;5104294;27;20115;-70
2022/06/01 07:36:43;;;;;;;6.00;1.83;;;18.60;59.50;;;;;;5092073;27;20067;-71
2022/06/01 07:44:49;;;;;;;1.27;1.17;;;18.60;59.70;;;;;;5092447;28;20138;-74
2022/06/01 07:47:18;;;;;;;2.92;1.65;;;18.70;59.80;;;;;;5092599;28;20210;-73
2022/06/01 07:49:44;;;;;;;3.42;1.42;;;18.70;59.70;;;;;;5095055;27;20050;-73
2022/06/01 07:52:12;;;;;;;3.08;1.55;;;18.70;59.60;;;;;;5090652;27;20039;-74
2022/06/01 07:54:39;;;;;;;2.75;1.15;;;18.70;59.60;;;;;;5089449;28;20202;-74
2022/06/01 07:57:05;;;;;;;2.85;1.30;;;18.70;59.60;;;;;;5092477;28;20411;-65
2022/06/01 07:59:32;;;;;;;2.65;1.30;;;18.80;59.60;;;;;;5093124;28;20046;-74
2022/06/01 08:01:58;;;;;;;5.30;1.50;;;18.90;59.40;;;;;;5088631;27;20043;-72
2022/06/01 08:04:23;;;;;;;4.13;1.40;;;19.00;59.20;;;;;;5087709;28;20052;-73
2022/06/01 08:06:50;;;;;;;5.32;1.98;;;19.00;59.10;;;;;;5093030;27;20065;-73
2022/06/01 08:09:16;;;;;;;4.13;1.80;;;19.00;59.10;;;;;;5090697;28;20044;-73
2022/06/01 08:14:27;;;;;;;2.53;1.98;;;18.90;59.30;;;;;;5099856;27;20128;-72
2022/06/01 08:16:53;;;;;;;4.07;1.98;;;18.90;59.30;;;;;;5086238;28;20050;-71
2022/06/01 08:19:19;;;;;;;2.33;1.70;;;18.90;59.50;;;;;;5088734;28;20039;-70
2022/06/01 08:21:45;;;;;;;3.20;1.52;;;18.80;59.60;;;;;;5076583;28;20070;-72
2022/06/01 08:24:12;;;;;;;3.63;1.45;;;18.80;59.40;;;;;;5087271;28;20454;-67
2022/06/01 08:26:38;;;;;;;9.00;1.98;;;18.80;59.60;;;;;;5090829;28;20080;-70
2022/06/01 08:29:04;;;;;;;2.85;1.23;;;18.80;60.00;;;;;;5100521;27;20664;-72
2022/06/01 08:31:31;;;;;;;7.28;1.52;;;18.80;60.30;;;;;;5083719;28;20032;-70
2022/06/01 08:33:58;;;;;;;3.58;1.33;;;18.80;60.70;;;;;;5101187;27;20044;-69
2022/06/01 08:36:24;;;;;;;8.32;1.35;;;18.80;60.80;;;;;;5087506;28;20791;-71
2022/06/01 08:38:50;;;;;;;6.78;2.10;;;18.70;60.90;;;;;;5083248;27;20204;-70
2022/06/01 08:41:20;;;;;;;6.15;1.58;;;18.70;61.00;;;;;;5083838;28;20055;-70
2022/06/01 08:43:50;;;;;;;11.85;2.10;;;18.70;61.20;;;;;;5086936;28;20534;-72
2022/06/01 08:46:17;;;;;;;;;;;18.70;61.20;;;;;;5099151;27;20791;-69
2022/06/01 08:51:29;;;;;;;7.63;1.40;;;18.90;61.50;;;;;;5046632;28;20545;-73
2022/06/01 08:53:56;;;;;;;3.85;0.95;;;19.10;60.30;;;;;;5049992;28;20503;-70
2022/06/01 08:56:30;;;;;;;2.80;1.40;;;19.40;59.60;;;;;;5054255;28;20048;-73
2022/06/01 09:13:15;;;;;;;4.55;0.70;;;20.80;56.20;;;;;;5102597;27;20455;-68
2022/06/01 09:15:49;;;;;;;5.50;1.10;;;20.80;55.80;;;;;;5083623;28;20046;-67
2022/06/01 09:18:18;;;;;;;2.38;0.80;;;21.00;55.60;;;;;;5088772;28;20704;-66
2022/06/01 09:23:33;;;;;;;6.13;1.25;;;21.20;55.00;;;;;;5085349;28;20059;-72
2022/06/01 09:25:59;;;;;;;5.93;0.93;;;21.30;54.90;;;;;;5084720;28;20036;-69
2022/06/01 09:28:27;;;;;;;3.45;1.17;;;21.20;55.00;;;;;;5092972;28;20495;-68
2022/06/01 09:33:38;;;;;;;3.83;1.25;;;21.20;55.10;;;;;;5077372;27;20468;-72
2022/06/01 09:44:11;;;;;;;3.63;1.02;;;21.10;55.40;;;;;;5064808;28;20829;-72
2022/06/01 09:49:24;;;;;;;3.13;0.93;;;20.90;56.90;;;;;;5101157;27;1151657;-70
2022/06/01 09:51:55;;;;;;;3.38;1.38;;;20.90;56.00;;;;;;5119713;27;20047;-73
2022/06/01 10:06:06;;;;;;;3.58;0.65;;;21.10;55.70;;;;;;5040303;28;20786;-70
2022/06/01 10:08:29;;;;;;;3.08;0.45;;;21.20;55.70;;;;;;5039794;28;20106;-69
2022/06/01 10:11:08;;;;;;;3.80;0.45;;;21.20;56.00;;;;;;5057525;28;20832;-69
2022/06/01 10:19:00;;;;;;;2.78;0.55;;;21.10;56.50;;;;;;5117942;27;1166347;-72
2022/06/01 10:21:44;;;;;;;5.28;0.57;;;21.20;56.50;;;;;;5143881;27;20486;-74
2022/06/01 10:24:17;;;;;;;6.10;0.57;;;21.30;56.60;;;;;;5126884;27;20165;-71
2022/06/01 10:26:50;;;;;;;2.90;0.90;;;21.30;56.60;;;;;;5122916;27;20050;-68
2022/06/01 10:29:21;;;;;;;3.15;0.40;;;21.40;56.50;;;;;;5123929;27;20042;-70
2022/06/01 10:34:51;;;;;;;2.45;0.50;;;21.30;56.60;;;;;;5117734;27;1155701;-71
2022/06/01 10:37:28;;;;;;;4.40;0.70;;;21.30;57.00;;;;;;5112602;28;20075;-71
2022/06/01 10:40:07;;;;;;;5.38;0.60;;;21.30;57.00;;;;;;5124895;27;20061;-69
2022/06/01 10:43:18;;;;;;;3.22;0.98;;;21.30;57.10;;;;;;5121861;27;20092;-71
2022/06/01 10:45:34;;;;;;;1.38;0.45;;;21.40;57.20;;;;;;5110026;27;20135;-69
2022/06/01 10:48:10;;;;;;;6.10;0.70;;;21.30;57.30;;;;;;5125806;27;21399;-68
2022/06/01 10:50:55;;;;;;;2.95;0.70;;;21.30;57.40;;;;;;5139191;27;20035;-70
2022/06/01 10:56:06;;;;;;;2.65;0.57;;;21.20;57.70;;;;;;5109340;27;1863543;-68
2022/06/01 10:58:33;;;;;;;2.97;0.65;;;21.10;57.60;;;;;;5132875;27;20046;-72
2022/06/01 11:15:18;;;;;;;9.85;1.05;;;20.70;56.20;;;;;;5123078;27;20089;-74
2022/06/01 11:18:01;;;;;;;1.85;0.40;;;20.60;56.10;;;;;;5114780;28;20069;-74
2022/06/01 11:31:46;;;;;;;1.20;0.20;;;20.40;56.10;;;;;;5134153;27;1167494;-74
2022/06/01 11:34:17;;;;;;;2.30;0.30;;;20.40;56.00;;;;;;5145295;27;20063;-73
2022/06/01 11:47:49;;;;;;;0.65;0.20;;;20.40;56.70;;;;;;5071587;27;20405;-73
2022/06/01 11:53:42;;;;;;;2.03;0.20;;;20.30;55.80;;;;;;5103116;27;20424;-73
2022/06/01 12:02:55;;;;;;;0.40;0.10;;;20.30;55.70;;;;;;5083419;27;20372;-73
2022/06/01 12:05:19;;;;;;;0.30;0.20;;;20.30;55.60;;;;;;5046949;28;20045;-73
2022/06/01 12:07:53;;;;;;;1.35;0.20;;;20.30;55.50;;;;;;5042890;28;20051;-72
2022/06/01 12:13:16;;;;;;;0.75;0.10;;;20.30;55.40;;;;;;5112823;27;20424;-73
2022/06/01 12:30:18;;;;;;;2.95;0.65;;;20.20;55.00;;;;;;5110715;27;20051;-73
2022/06/01 12:35:46;;;;;;;1.05;0.10;;;20.20;55.00;;;;;;5115299;27;20381;-72
2022/06/01 12:38:34;;;;;;;1.45;0.30;;;20.10;54.90;;;;;;5105764;28;20044;-72
2022/06/01 12:41:05;;;;;;;0.30;0.08;;;20.10;54.80;;;;;;5117714;27;20117;-73
2022/06/01 12:43:31;;;;;;;0.30;0.10;;;20.10;54.90;;;;;;5098073;28;20071;-73
2022/06/01 12:45:57;;;;;;;0.68;0.10;;;20.10;54.80;;;;;;5100489;28;20055;-73
2022/06/01 12:48:24;;;;;;;0.63;0.10;;;20.10;54.80;;;;;;5098397;28;20031;-73
2022/06/01 12:51:02;;;;;;;0.52;0.10;;;20.10;54.80;;;;;;5100178;28;20048;-72
2022/06/01 12:53:43;;;;;;;0.63;0.10;;;20.00;54.70;;;;;;5114555;28;20566;-73
2022/06/01 12:56:15;;;;;;;0.40;0.10;;;20.00;54.60;;;;;;5094392;28;20475;-72
2022/06/01 12:58:41;;;;;;;0.80;0.10;;;20.00;54.70;;;;;;5101163;28;20253;-73
2022/06/01 13:01:08;;;;;;;0.30;0.10;;;20.00;54.60;;;;;;5102280;28;20032;-73
2022/06/01 13:03:33;;;;;;;0.40;0.13;;;20.00;54.60;;;;;;5098991;28;20134;-72
2022/06/01 13:06:09;;;;;;;0.63;0.10;;;20.00;54.60;;;;;;5096404;28;20119;-72
2022/06/01 13:08:37;;;;;;;0.32;0.10;;;20.00;54.50;;;;;;5098041;28;20068;-73
2022/06/01 13:13:59;;;;;;;0.25;0.10;;;20.00;54.40;;;;;;5105171;27;20371;-72
2022/06/01 13:16:35;;;;;;;0.28;0.10;;;20.00;54.40;;;;;;5095606;28;20473;-72
2022/06/01 13:24:42;;;;;;;0.60;0.10;;;20.00;54.30;;;;;;5074968;28;20437;-72
2022/06/01 13:27:08;;;;;;;0.85;0.10;;;20.00;54.50;;;;;;5071529;28;20145;-72
2022/06/01 13:29:43;;;;;;;0.20;0.10;;;20.00;54.30;;;;;;5070269;28;20036;-72
2022/06/01 13:32:11;;;;;;;1.08;0.10;;;20.00;54.30;;;;;;5074672;28;20048;-72
2022/06/01 13:40:07;;;;;;;0.40;0.10;;;20.00;54.20;;;;;;5125057;27;20391;-71
2022/06/01 13:45:22;;;;;;;0.60;0.10;;;19.90;54.00;;;;;;5130100;27;20107;-72
2022/06/01 13:50:31;;;;;;;2.67;0.10;;;19.90;54.10;;;;;;5103400;27;20755;-71
2022/06/01 13:58:39;;;;;;;1.85;0.20;;;19.90;55.50;;;;;;5082748;28;20900;-68
2022/06/01 14:01:07;;;;;;;;;;;19.90;55.80;;;;;;5070479;28;20685;-68
2022/06/01 14:03:40;;;;;;;0.52;0.00;;;20.00;56.50;;;;;;5072628;28;19916;-69
2022/06/01 14:06:09;;;;;;;1.45;0.10;;;20.00;56.20;;;;;;5077905;28;20124;-68
2022/06/01 14:11:16;;;;;;;0.20;0.05;;;20.10;56.20;;;;;;5103025;27;20412;-67
2022/06/01 14:13:44;;;;;;;0.60;0.00;;;20.20;56.20;;;;;;5091610;28;20059;-67
2022/06/01 14:16:13;;;;;;;0.73;0.10;;;20.30;56.10;;;;;;5089594;28;20047;-67
2022/06/01 14:18:39;;;;;;;0.95;0.05;;;20.30;56.20;;;;;;5091194;28;20036;-66
2022/06/01 14:21:06;;;;;;;0.30;0.00;;;20.30;56.10;;;;;;5085579;28;20123;-67
2022/06/01 14:23:31;;;;;;;0.20;0.00;;;20.30;56.10;;;;;;5085487;28;20105;-70
2022/06/01 14:28:43;;;;;;;0.20;0.10;;;20.40;55.50;;;;;;5094724;28;20539;-68
2022/06/01 14:31:12;;;;;;;1.30;0.00;;;20.50;55.60;;;;;;5081141;28;20116;-70
2022/06/01 14:33:39;;;;;;;1.38;0.03;;;20.50;54.80;;;;;;5106701;28;20139;-70
2022/06/01 14:36:05;;;;;;;0.32;0.00;;;20.50;54.20;;;;;;5075074;28;20043;-69
2022/06/01 14:38:35;;;;;;;1.30;0.00;;;20.50;53.80;;;;;;5068792;28;20048;-69
2022/06/01 14:41:04;;;;;;;0.45;0.00;;;20.40;53.40;;;;;;5070865;28;20072;-70
2022/06/01 14:43:36;;;;;;;0.22;0.00;;;20.40;53.20;;;;;;5090251;28;20059;-71
2022/06/01 14:46:06;;;;;;;1.38;0.00;;;20.50;53.10;;;;;;5086491;28;20119;-72
2022/06/01 14:48:33;;;;;;;0.25;0.00;;;20.50;53.10;;;;;;5096971;28;20123;-73
2022/06/01 14:51:04;;;;;;;0.43;0.10;;;20.50;53.00;;;;;;5090264;28;20082;-72
2022/06/01 14:53:31;;;;;;;;;;;20.40;53.00;;;;;;5121745;27;20039;-72
2022/06/01 14:55:57;;;;;;;0.30;0.00;;;20.40;52.90;;;;;;5085427;28;20007;-72
2022/06/01 14:58:23;;;;;;;0.10;0.00;;;20.30;53.20;;;;;;5082838;28;20123;-72
2022/06/01 15:00:52;;;;;;;0.90;0.00;;;20.30;53.20;;;;;;5086624;28;20047;-71
2022/06/01 15:03:37;;;;;;;1.60;0.08;;;20.30;53.20;;;;;;5087257;28;20353;-72
2022/06/01 15:06:03;;;;;;;1.65;0.00;;;20.30;53.00;;;;;;5084733;28;20116;-72
2022/06/01 15:08:29;;;;;;;2.42;0.10;;;20.40;53.10;;;;;;5085193;28;20037;-72
2022/06/01 15:10:55;;;;;;;1.83;0.00;;;20.40;53.00;;;;;;5086328;28;20102;-72
2022/06/01 15:13:21;;;;;;;0.40;0.10;;;20.30;52.90;;;;;;5086280;28;20032;-72
2022/06/01 15:15:47;;;;;;;0.20;0.00;;;20.30;52.90;;;;;;5086338;28;20044;-72
2022/06/01 15:18:15;;;;;;;0.90;0.00;;;20.30;52.80;;;;;;5084953;28;20066;-72
2022/06/01 15:20:41;;;;;;;0.52;0.10;;;20.30;52.80;;;;;;5082436;28;20072;-73
2022/06/01 15:23:10;;;;;;;1.60;0.00;;;20.30;52.80;;;;;;5073810;28;20554;-72
2022/06/01 15:25:37;;;;;;;0.47;0.00;;;20.20;52.80;;;;;;5072459;28;20051;-72
2022/06/01 15:28:06;;;;;;;0.08;0.00;;;20.20;52.80;;;;;;5072967;28;20496;-72
2022/06/01 15:41:41;;;;;;;0.30;0.00;;;20.10;52.90;;;;;;5071591;28;20097;-71
2022/06/01 15:44:07;;;;;;;0.28;0.00;;;20.00;52.80;;;;;;5072259;28;20040;-72
2022/06/01 15:46:36;;;;;;;0.10;0.00;;;20.00;52.90;;;;;;5072683;28;20036;-72
2022/06/01 15:49:07;;;;;;;0.22;0.00;;;19.90;52.80;;;;;;5072478;28;20107;-72
2022/06/01 15:51:34;;;;;;;0.00;0.00;;;19.90;52.80;;;;;;5071138;28;20048;-72
2022/06/01 15:53:59;;;;;;;0.08;0.00;;;19.90;52.90;;;;;;5071209;28;20051;-72
2022/06/01 15:56:26;;;;;;;0.00;0.00;;;19.90;52.90;;;;;;5104502;28;20056;-71
2022/06/01 15:58:55;;;;;;;0.10;0.00;;;19.90;52.90;;;;;;5072320;28;20051;-72
2022/06/01 16:01:21;;;;;;;0.00;0.00;;;19.90;53.00;;;;;;5059538;28;20043;-72
2022/06/01 16:03:48;;;;;;;0.10;0.00;;;19.90;53.00;;;;;;5067395;28;20045;-72
2022/06/01 16:06:14;;;;;;;0.70;0.05;;;19.80;53.00;;;;;;5054388;28;20049;-72
2022/06/01 16:08:42;;;;;;;1.15;0.00;;;19.80;53.10;;;;;;5071105;28;20120;-71
2022/06/01 16:11:08;;;;;;;1.55;0.00;;;19.70;53.10;;;;;;5070187;28;20048;-72